Time;durP1;ratioP1;P1;durP2;ratioP2;P2;SDS_P1;SDS_P2;PMS_P1;PMS_P2;Temp;Humidity;BMP_temperature;BMP_pressure;BME280_temperature;BME280_humidity;BME280_pressure;Samples;Min_cycle;Max_cycle;Signal;HPM_P1;HPM_P2
2021/09/04 00:00:56;;;;;;;;;2.00;2.00;;;;;26.91;41.49;100740.59;5034123;28;45561;-66
2021/09/04 00:03:21;;;;;;;;;2.00;2.00;;;;;26.92;41.71;100740.53;5035151;28;45531;-66
2021/09/04 00:05:46;;;;;;;;;3.00;3.00;;;;;26.90;41.91;100739.69;5035148;28;46252;-67
2021/09/04 00:08:12;;;;;;;;;2.67;2.67;;;;;26.92;41.50;100740.53;5034925;28;45478;-65
2021/09/04 00:10:37;;;;;;;;;2.67;2.67;;;;;26.92;42.15;100736.91;5035109;28;45458;-65
2021/09/04 00:13:03;;;;;;;;;2.33;2.33;;;;;26.91;41.59;100744.22;5033746;28;45686;-66
2021/09/04 00:15:28;;;;;;;;;3.67;3.00;;;;;26.90;41.69;100747.88;5034939;28;45480;-65
2021/09/04 00:17:54;;;;;;;;;2.00;2.00;;;;;26.91;41.55;100755.13;5035180;28;45394;-66
2021/09/04 00:20:19;;;;;;;;;3.67;3.67;;;;;26.91;41.60;100754.25;5035077;28;45504;-66
2021/09/04 00:22:45;;;;;;;;;2.00;2.00;;;;;26.89;41.90;100757.06;5035127;28;45759;-66
2021/09/04 00:25:10;;;;;;;;;3.67;2.67;;;;;26.90;42.00;100749.75;5035165;28;45807;-67
2021/09/04 00:27:36;;;;;;;;;4.00;3.00;;;;;26.89;41.90;100748.88;5035004;28;45405;-66
2021/09/04 00:30:02;;;;;;;;;3.33;3.33;;;;;26.90;42.01;100750.63;5034689;28;45473;-66
2021/09/04 00:32:27;;;;;;;;;2.00;2.00;;;;;26.88;41.67;100744.34;5035047;28;45501;-66
2021/09/04 00:34:53;;;;;;;;;2.00;2.00;;;;;26.88;42.16;100743.47;5034503;28;45351;-66
2021/09/04 00:37:18;;;;;;;;;1.00;1.00;;;;;26.89;41.89;100748.00;5034360;28;45477;-66
2021/09/04 00:39:44;;;;;;;;;2.33;2.00;;;;;26.87;41.68;100741.72;5034916;28;45410;-66
2021/09/04 00:42:09;;;;;;;;;3.00;1.33;;;;;26.87;41.56;100728.97;5034969;28;45723;-66
2021/09/04 00:44:34;;;;;;;;;2.00;2.00;;;;;26.86;42.04;100734.50;5034440;28;45417;-66
2021/09/04 00:47:04;;;;;;;;;3.67;2.67;;;;;26.85;41.73;100736.34;5034447;28;45401;-66
2021/09/04 00:49:32;;;;;;;;;1.00;1.00;;;;;26.85;42.29;100733.63;5033300;28;45530;-66
2021/09/04 00:51:57;;;;;;;;;2.00;2.00;;;;;26.76;41.60;100725.91;5034340;28;45350;-66
2021/09/04 00:54:23;;;;;;;;;2.67;2.00;;;;;26.84;42.25;100728.25;5032667;28;45393;-66
2021/09/04 00:56:49;;;;;;;;;1.33;1.33;;;;;26.83;41.63;100730.09;5032991;28;45449;-66
2021/09/04 00:59:15;;;;;;;;;1.00;1.00;;;;;26.84;41.63;100733.69;5034618;28;45419;-66
2021/09/04 01:01:41;;;;;;;;;1.67;1.67;;;;;26.83;41.83;100731.94;5034563;28;45452;-66
2021/09/04 01:04:06;;;;;;;;;1.67;1.67;;;;;26.80;42.08;100722.06;5034163;28;45467;-66
2021/09/04 01:06:32;;;;;;;;;1.00;1.00;;;;;26.82;41.65;100720.13;5032469;28;45461;-66
2021/09/04 01:08:57;;;;;;;;;2.00;2.00;;;;;26.80;42.15;100719.34;5034338;28;45508;-66
2021/09/04 01:11:24;;;;;;;;;0.00;0.00;;;;;26.83;42.37;100727.38;5034526;28;45421;-66
2021/09/04 01:13:50;;;;;;;;;1.33;1.33;;;;;26.82;41.85;100727.44;5034088;28;46252;-66
2021/09/04 01:16:15;;;;;;;;;2.00;2.00;;;;;26.80;42.29;100724.78;5034332;28;45812;-66
2021/09/04 01:18:47;;;;;;;;;1.33;1.33;;;;;26.81;41.94;100722.97;5034327;28;45427;-66
2021/09/04 01:21:13;;;;;;;;;2.33;2.33;;;;;26.77;42.34;100713.19;5034118;28;45393;-66
2021/09/04 01:23:39;;;;;;;;;2.67;2.67;;;;;26.80;41.72;100716.59;5037155;28;45464;-66
2021/09/04 01:26:11;;;;;;;;;3.00;2.00;;;;;26.79;42.11;100713.97;5037406;28;45810;-66
2021/09/04 01:28:38;;;;;;;;;1.67;1.67;;;;;26.79;41.80;100717.59;5037642;28;45415;-66
2021/09/04 01:31:05;;;;;;;;;1.00;1.00;;;;;26.79;42.35;100714.84;5037917;28;45490;-66
2021/09/04 01:33:30;;;;;;;;;1.00;1.00;;;;;26.78;41.96;100712.19;5037583;28;45431;-66
2021/09/04 01:35:57;;;;;;;;;1.00;1.00;;;;;26.78;42.44;100707.63;5037261;28;45510;-66
2021/09/04 01:38:24;;;;;;;;;2.33;2.33;;;;;26.77;41.89;100711.31;5037396;28;45385;-66
2021/09/04 01:40:50;;;;;;;;;3.33;2.33;;;;;26.76;41.92;100701.38;5037561;28;45514;-66
2021/09/04 01:43:15;;;;;;;;;3.00;1.67;;;;;26.78;41.95;100710.34;5036063;28;45729;-66
2021/09/04 01:45:41;;;;;;;;;2.00;2.00;;;;;26.77;42.13;100705.88;5037325;28;45421;-66
2021/09/04 01:48:06;;;;;;;;;2.00;2.00;;;;;26.76;42.33;100709.53;5035823;28;45421;-66
2021/09/04 01:50:32;;;;;;;;;1.00;1.00;;;;;26.76;41.89;100715.00;5039956;28;45482;-66
2021/09/04 01:52:58;;;;;;;;;0.33;0.33;;;;;26.77;42.61;100713.19;5035717;28;46994;-66
2021/09/04 01:55:23;;;;;;;;;1.33;1.33;;;;;26.74;42.41;100711.47;5035760;28;45784;-66
2021/09/04 01:57:49;;;;;;;;;1.00;1.00;;;;;26.76;42.41;100715.00;5037335;28;45421;-66
2021/09/04 02:00:16;;;;;;;;;2.67;2.67;;;;;26.76;42.27;100714.13;5037592;28;45453;-66
2021/09/04 02:02:43;;;;;;;;;0.00;0.00;;;;;26.73;42.66;100712.47;5036982;28;46207;-66
2021/09/04 02:05:10;;;;;;;;;0.67;0.67;;;;;26.75;42.60;100702.34;5037114;28;45410;-66
2021/09/04 02:07:36;;;;;;;;;1.67;1.67;;;;;26.75;42.24;100707.81;5036980;28;45440;-66
2021/09/04 02:10:03;;;;;;;;;2.00;2.00;;;;;26.76;42.55;100708.69;5037174;28;45506;-66
2021/09/04 02:12:28;;;;;;;;;1.67;1.67;;;;;26.74;41.92;100706.94;5036798;28;45418;-66
2021/09/04 02:14:53;;;;;;;;;2.00;2.00;;;;;26.74;42.35;100706.03;5036698;28;45466;-66
2021/09/04 02:17:19;;;;;;;;;1.33;0.00;;;;;26.74;42.28;100706.03;5036942;28;45534;-66
2021/09/04 02:19:45;;;;;;;;;2.00;0.00;;;;;26.72;42.18;100702.50;5037287;28;44809;-66
2021/09/04 02:22:12;;;;;;;;;1.00;1.00;;;;;26.72;41.94;100697.94;5036787;28;46354;-66
2021/09/04 02:24:38;;;;;;;;;0.33;0.33;;;;;26.74;42.02;100704.19;5036827;28;45528;-66
2021/09/04 02:27:04;;;;;;;;;1.00;1.00;;;;;26.72;42.38;100703.41;5037097;28;45449;-66
2021/09/04 02:29:29;;;;;;;;;1.33;1.33;;;;;26.72;41.93;100703.41;5036933;28;45447;-66
2021/09/04 02:31:55;;;;;;;;;0.67;0.67;;;;;26.72;42.33;100702.50;5036879;28;46313;-66
2021/09/04 02:34:21;;;;;;;;;1.00;1.00;;;;;26.72;41.99;100700.66;5035241;28;45397;-66
2021/09/04 02:36:46;;;;;;;;;0.00;0.00;;;;;26.72;41.98;100702.50;5036806;28;45518;-66
2021/09/04 02:39:12;;;;;;;;;0.33;0.33;;;;;26.69;41.98;100694.50;5036738;28;45426;-66
2021/09/04 02:41:37;;;;;;;;;2.00;2.00;;;;;26.70;42.54;100694.41;5036357;28;45460;-66
2021/09/04 02:44:03;;;;;;;;;2.00;1.00;;;;;26.72;42.55;100707.94;5036379;28;45458;-66
2021/09/04 02:46:30;;;;;;;;;1.00;1.00;;;;;26.72;42.12;100702.50;5036799;28;45920;-66
2021/09/04 02:48:55;;;;;;;;;2.33;1.33;;;;;26.71;42.00;100700.75;5035336;28;45435;-66
2021/09/04 02:51:20;;;;;;;;;0.00;0.00;;;;;26.70;42.57;100698.97;5036427;28;46214;-66
2021/09/04 02:53:46;;;;;;;;;1.67;1.67;;;;;26.69;42.35;100699.94;5036263;28;45397;-66
2021/09/04 02:56:11;;;;;;;;;0.33;0.33;;;;;26.68;42.28;100698.16;5036140;28;45438;-66
2021/09/04 02:58:36;;;;;;;;;1.00;1.00;;;;;26.69;42.12;100699.94;5036628;28;45461;-66
2021/09/04 03:01:02;;;;;;;;;4.00;3.00;;;;;26.67;42.37;100699.16;5036135;28;46173;-65
2021/09/04 03:03:29;;;;;;;;;2.33;1.00;;;;;26.65;42.10;100690.16;5035954;28;45374;-66
2021/09/04 03:05:56;;;;;;;;;1.00;1.00;;;;;26.66;42.26;100697.38;5036623;28;45454;-66
2021/09/04 03:08:22;;;;;;;;;0.67;0.67;;;;;26.68;42.63;100695.44;5036266;28;45378;-66
2021/09/04 03:10:48;;;;;;;;;1.00;1.00;;;;;26.68;42.14;100692.72;5036132;28;45487;-66
2021/09/04 03:13:13;;;;;;;;;1.00;1.00;;;;;26.67;42.73;100693.69;5036047;28;45512;-66
2021/09/04 03:15:39;;;;;;;;;0.00;0.00;;;;;26.66;42.26;100698.28;5036029;28;45073;-66
2021/09/04 03:18:04;;;;;;;;;0.67;0.00;;;;;26.66;42.40;100697.38;5036134;28;45424;-66
2021/09/04 03:20:30;;;;;;;;;0.67;0.67;;;;;26.67;42.70;100690.97;5034579;28;45615;-66
2021/09/04 03:22:56;;;;;;;;;1.67;1.67;;;;;26.66;42.25;100690.09;5035683;28;45425;-66
2021/09/04 03:25:22;;;;;;;;;0.00;0.00;;;;;26.66;42.64;100692.81;5035984;28;45362;-66
2021/09/04 03:27:47;;;;;;;;;0.00;0.00;;;;;26.66;42.22;100692.81;5036144;28;45377;-66
2021/09/04 03:30:12;;;;;;;;;1.67;1.67;;;;;26.66;42.67;100691.91;5035641;28;45452;-66
2021/09/04 03:32:38;;;;;;;;;2.67;1.00;;;;;26.66;42.78;100689.19;5035834;28;45420;-66
2021/09/04 03:35:05;;;;;;;;;1.00;1.00;;;;;26.66;42.50;100683.72;5034456;28;45300;-66
2021/09/04 03:37:30;;;;;;;;;2.00;2.00;;;;;26.66;42.46;100689.19;5036309;28;45848;-66
2021/09/04 03:39:56;;;;;;;;;1.00;0.33;;;;;26.65;42.51;100690.16;5035487;28;45453;-66
2021/09/04 03:42:21;;;;;;;;;0.00;0.00;;;;;26.66;42.51;100698.28;5035458;28;44917;-66
2021/09/04 03:44:47;;;;;;;;;2.00;2.00;;;;;26.65;42.47;100696.50;5033632;28;45434;-66
2021/09/04 03:47:13;;;;;;;;;1.00;0.67;;;;;26.65;42.63;100691.03;5035572;28;45277;-66
2021/09/04 03:49:39;;;;;;;;;3.00;1.33;;;;;26.65;42.25;100692.91;5033799;28;46264;-66
2021/09/04 03:52:04;;;;;;;;;1.33;1.33;;;;;26.64;42.50;100692.03;5035539;28;45444;-66
2021/09/04 03:54:30;;;;;;;;;1.00;1.00;;;;;26.65;42.40;100701.09;5034996;28;45464;-66
2021/09/04 03:56:55;;;;;;;;;2.00;2.00;;;;;26.64;42.44;100694.75;5035417;28;45454;-66
2021/09/04 03:59:21;;;;;;;;;3.00;2.00;;;;;26.62;42.73;100687.59;5035204;28;45854;-66
2021/09/04 04:01:47;;;;;;;;;1.00;1.00;;;;;26.65;42.72;100693.75;5034913;28;45519;-65
2021/09/04 04:04:13;;;;;;;;;1.00;1.00;;;;;26.63;42.46;100684.78;5034044;28;45452;-65
2021/09/04 04:06:38;;;;;;;;;0.00;0.00;;;;;26.63;42.81;100687.50;5017504;28;45330;-65
2021/09/04 04:09:04;;;;;;;;;0.00;0.00;;;;;26.63;42.62;100682.06;5035033;28;45445;-65
2021/09/04 04:11:29;;;;;;;;;1.33;1.33;;;;;26.64;42.36;100693.84;5035169;28;45704;-65
2021/09/04 04:13:54;;;;;;;;;0.33;0.33;;;;;26.63;42.81;100686.63;5035113;28;45467;-65
2021/09/04 04:16:20;;;;;;;;;1.33;1.33;;;;;26.61;42.27;100689.44;5035355;28;45473;-65
2021/09/04 04:18:45;;;;;;;;;1.33;0.00;;;;;26.63;42.35;100686.63;5034972;28;46071;-65
2021/09/04 04:21:10;;;;;;;;;1.00;1.00;;;;;26.61;42.71;100680.38;5035007;28;45781;-65
2021/09/04 04:23:36;;;;;;;;;2.00;2.00;;;;;26.62;42.44;100687.59;5034840;28;45441;-65
2021/09/04 04:26:01;;;;;;;;;1.00;1.00;;;;;26.61;42.89;100689.44;5035282;28;45423;-66
2021/09/04 04:28:27;;;;;;;;;3.00;1.00;;;;;26.63;42.80;100683.91;5034781;28;46521;-65
2021/09/04 04:30:52;;;;;;;;;0.00;0.00;;;;;26.61;42.61;100683.13;5049952;28;44878;-65
2021/09/04 04:33:18;;;;;;;;;0.00;0.00;;;;;26.61;42.80;100673.06;5034899;28;45688;-66
2021/09/04 04:35:43;;;;;;;;;0.33;0.33;;;;;26.62;42.24;100680.31;5034983;28;45507;-66
2021/09/04 04:38:09;;;;;;;;;1.00;1.00;;;;;26.61;42.76;100681.25;5034706;28;45506;-66
2021/09/04 04:40:34;;;;;;;;;1.00;1.00;;;;;26.61;42.52;100677.66;5033361;28;45551;-65
2021/09/04 04:43:00;;;;;;;;;2.00;2.00;;;;;26.58;42.30;100673.22;5033117;28;45431;-65
2021/09/04 04:45:25;;;;;;;;;1.00;1.00;;;;;26.61;42.50;100674.94;5034716;28;45509;-66
2021/09/04 04:47:50;;;;;;;;;0.33;0.33;;;;;26.59;42.42;100676.84;5034301;28;45973;-66
2021/09/04 04:50:16;;;;;;;;;1.67;1.67;;;;;26.60;42.44;100675.88;5033043;28;45532;-66
2021/09/04 04:52:42;;;;;;;;;0.67;0.67;;;;;26.60;42.96;100679.50;5033151;28;45383;-65
2021/09/04 04:55:09;;;;;;;;;0.67;0.67;;;;;26.58;42.82;100677.81;5033592;28;45434;-65
2021/09/04 04:57:34;;;;;;;;;1.00;1.00;;;;;26.59;42.61;100679.59;5033471;28;45498;-65
2021/09/04 05:00:00;;;;;;;;;0.33;0.33;;;;;26.58;42.51;100678.69;5034229;28;45471;-66
2021/09/04 05:02:25;;;;;;;;;0.00;0.00;;;;;26.55;42.95;100679.69;5034228;28;45874;-65
2021/09/04 05:04:51;;;;;;;;;0.33;0.33;;;;;26.58;42.30;100683.25;5034761;28;45476;-65
2021/09/04 05:07:16;;;;;;;;;2.33;2.33;;;;;26.56;42.83;100686.03;5034585;28;45384;-66
2021/09/04 05:09:42;;;;;;;;;0.00;0.00;;;;;26.59;42.57;100690.50;5034483;28;45522;-66
2021/09/04 05:12:07;;;;;;;;;0.00;0.00;;;;;26.58;42.62;100683.25;5034806;28;45428;-66
2021/09/04 05:14:32;;;;;;;;;2.67;1.00;;;;;26.55;42.87;100690.63;5032795;28;45841;-66
2021/09/04 05:16:58;;;;;;;;;0.00;0.00;;;;;26.55;42.42;100690.63;5033998;28;45445;-66
2021/09/04 05:19:23;;;;;;;;;0.00;0.00;;;;;26.55;42.94;100689.75;5034097;28;45447;-66
2021/09/04 05:21:49;;;;;;;;;0.67;0.67;;;;;26.53;43.07;100687.09;5034251;28;45417;-66
2021/09/04 05:24:14;;;;;;;;;1.00;1.00;;;;;26.55;42.79;100696.06;5034268;28;45423;-66
2021/09/04 05:26:39;;;;;;;;;1.67;1.67;;;;;26.55;42.86;100700.66;5033933;28;45919;-66
2021/09/04 05:29:05;;;;;;;;;0.00;0.00;;;;;26.58;42.96;100696.91;5033821;28;45446;-66
2021/09/04 05:31:31;;;;;;;;;1.00;1.00;;;;;26.57;42.47;100703.31;5034197;28;45410;-66
2021/09/04 05:33:57;;;;;;;;;1.00;1.00;;;;;26.58;42.63;100713.28;5034250;28;45390;-66
2021/09/04 05:36:23;;;;;;;;;1.00;1.00;;;;;26.57;43.00;100716.94;5033622;28;47032;-66
2021/09/04 05:38:48;;;;;;;;;0.00;0.00;;;;;26.55;42.92;100717.88;5033496;28;45481;-66
2021/09/04 05:41:14;;;;;;;;;1.67;1.67;;;;;26.55;42.94;100712.44;5033919;28;45429;-66
2021/09/04 05:43:40;;;;;;;;;0.67;0.67;;;;;26.53;42.89;100713.50;5034055;28;45666;-66
2021/09/04 05:46:06;;;;;;;;;1.00;1.00;;;;;26.52;42.92;100712.63;5034018;28;45388;-66
2021/09/04 05:48:31;;;;;;;;;1.00;1.00;;;;;26.55;43.00;100717.88;5032422;28;45445;-66
2021/09/04 05:51:02;;;;;;;;;1.00;1.00;;;;;26.55;42.72;100720.63;5034012;28;45819;-66
2021/09/04 05:53:28;;;;;;;;;1.67;0.67;;;;;26.55;42.72;100719.75;5033695;28;45398;-66
2021/09/04 05:55:53;;;;;;;;;1.33;1.33;;;;;26.54;42.78;100716.13;5031735;28;46120;-66
2021/09/04 05:58:19;;;;;;;;;1.67;1.67;;;;;26.55;43.04;100717.00;5033569;28;45347;-66
2021/09/04 06:00:44;;;;;;;;;2.67;1.33;;;;;26.54;43.07;100721.59;5036182;28;45458;-66
2021/09/04 06:03:09;;;;;;;;;1.00;1.00;;;;;26.49;42.61;100711.88;5033916;28;45449;-66
2021/09/04 06:05:36;;;;;;;;;2.33;1.33;;;;;26.54;42.50;100729.78;5033218;28;46067;-66
2021/09/04 06:08:02;;;;;;;;;1.00;1.00;;;;;26.55;42.60;100727.94;5034337;28;45464;-67
2021/09/04 06:10:27;;;;;;;;;0.33;0.33;;;;;26.52;42.72;100726.25;5037103;28;45524;-67
2021/09/04 06:12:53;;;;;;;;;1.33;1.33;;;;;26.53;43.16;100732.56;5036843;28;45441;-67
2021/09/04 06:15:18;;;;;;;;;1.00;1.00;;;;;26.52;42.63;100734.44;5035242;28;47396;-66
2021/09/04 06:17:43;;;;;;;;;1.33;1.33;;;;;26.51;42.61;100731.78;5036610;28;45399;-65
2021/09/04 06:20:10;;;;;;;;;0.00;0.00;;;;;26.53;42.72;100732.56;5036653;28;45417;-65
2021/09/04 06:22:36;;;;;;;;;0.67;0.67;;;;;26.52;42.73;100734.44;5036754;28;45537;-66
2021/09/04 06:25:02;;;;;;;;;0.67;0.67;;;;;26.51;43.11;100731.78;5036364;28;45372;-66
2021/09/04 06:27:28;;;;;;;;;1.33;1.33;;;;;26.54;42.67;100742.50;5036368;28;45425;-65
2021/09/04 06:29:53;;;;;;;;;0.33;0.33;;;;;26.53;42.89;100743.50;5036460;28;45433;-66
2021/09/04 06:32:19;;;;;;;;;0.67;0.67;;;;;26.51;42.83;100738.09;5036769;28;45442;-66
2021/09/04 06:34:44;;;;;;;;;1.00;1.00;;;;;26.52;42.87;100737.16;5036436;28;45226;-66
2021/09/04 06:37:11;;;;;;;;;0.00;0.00;;;;;26.51;42.85;100732.66;5036522;28;45447;-65
2021/09/04 06:39:36;;;;;;;;;0.67;0.67;;;;;26.49;42.83;100720.94;5036139;28;45469;-66
2021/09/04 06:42:02;;;;;;;;;1.00;1.00;;;;;26.53;43.16;100725.28;5036518;28;45389;-66
2021/09/04 06:44:27;;;;;;;;;0.33;0.33;;;;;26.50;42.73;100728.19;5036461;28;45460;-66
2021/09/04 06:46:53;;;;;;;;;1.67;1.67;;;;;26.53;42.66;100735.31;5034687;28;45492;-66
2021/09/04 06:49:18;;;;;;;;;0.00;0.00;;;;;26.53;42.61;100740.75;5033589;28;45778;-66
2021/09/04 06:51:43;;;;;;;;;1.33;1.33;;;;;26.53;42.79;100738.03;5036336;28;45365;-66
2021/09/04 06:54:09;;;;;;;;;0.00;0.00;;;;;26.52;42.52;100738.97;5036016;28;45506;-66
2021/09/04 06:56:40;;;;;;;;;1.00;1.00;;;;;26.53;42.91;100736.19;5036016;28;45808;-66
2021/09/04 06:59:10;;;;;;;;;1.00;1.00;;;;;26.51;42.72;100732.66;5036216;28;45442;-66
2021/09/04 07:01:35;;;;;;;;;0.67;0.67;;;;;26.51;42.95;100738.09;5035788;28;45563;-66
2021/09/04 07:04:00;;;;;;;;;2.00;2.00;;;;;26.51;43.24;100732.66;5036025;28;46521;-64
2021/09/04 07:06:26;;;;;;;;;0.00;0.00;;;;;26.51;43.06;100732.66;5036027;28;45428;-66
2021/09/04 07:08:51;;;;;;;;;1.00;1.00;;;;;26.51;42.76;100743.56;5035865;28;45423;-66
2021/09/04 07:11:16;;;;;;;;;1.00;0.00;;;;;26.53;42.75;100740.75;5036334;28;45416;-66
2021/09/04 07:13:42;;;;;;;;;0.00;0.00;;;;;26.51;42.97;100740.84;5035843;28;45514;-66
2021/09/04 07:16:07;;;;;;;;;1.00;1.00;;;;;26.50;42.79;100733.63;5035768;28;45544;-65
2021/09/04 07:18:32;;;;;;;;;1.00;1.00;;;;;26.52;42.71;100739.88;5051189;28;45545;-66
2021/09/04 07:20:58;;;;;;;;;1.00;1.00;;;;;26.53;42.78;100740.75;5035258;28;45360;-66
2021/09/04 07:23:23;;;;;;;;;1.33;1.33;;;;;26.53;43.22;100741.63;5035667;28;45588;-66
2021/09/04 07:25:48;;;;;;;;;0.00;0.00;;;;;26.50;43.00;100735.44;5035798;28;45448;-66
2021/09/04 07:28:14;;;;;;;;;0.00;0.00;;;;;26.50;43.25;100741.81;5034790;28;45469;-66
2021/09/04 07:30:39;;;;;;;;;0.67;0.33;;;;;26.47;43.05;100736.50;5036275;28;45434;-66
2021/09/04 07:33:05;;;;;;;;;1.33;1.33;;;;;26.52;42.71;100748.06;5035260;28;45366;-66
2021/09/04 07:35:30;;;;;;;;;1.00;1.00;;;;;26.54;43.15;100747.97;5035419;28;45743;-66
2021/09/04 07:38:04;;;;;;;;;1.00;1.00;;;;;26.52;43.09;100745.34;5035192;28;45377;-66
2021/09/04 07:40:29;;;;;;;;;2.33;2.33;;;;;26.53;42.87;100741.63;5035614;28;44905;-66
2021/09/04 07:42:55;;;;;;;;;1.00;1.00;;;;;26.55;43.07;100744.28;5035385;28;45691;-66
2021/09/04 07:45:21;;;;;;;;;0.00;0.00;;;;;26.54;42.92;100743.41;5035041;28;45411;-66
2021/09/04 07:47:47;;;;;;;;;1.00;1.00;;;;;26.55;42.90;100749.75;5033907;28;45445;-66
2021/09/04 07:50:18;;;;;;;;;0.00;0.00;;;;;26.53;43.43;100747.09;5033790;28;45413;-67
2021/09/04 07:52:44;;;;;;;;;2.00;2.00;;;;;26.57;43.28;100744.22;5033619;28;45418;-67
2021/09/04 07:55:09;;;;;;;;;1.67;1.67;;;;;26.58;42.90;100748.72;5035063;28;45472;-67
2021/09/04 07:57:35;;;;;;;;;0.67;0.67;;;;;26.59;43.33;100753.25;5033445;28;45402;-67
2021/09/04 08:00:00;;;;;;;;;2.00;2.00;;;;;26.58;43.11;100744.16;5034189;28;45392;-66
2021/09/04 08:02:26;;;;;;;;;1.67;1.67;;;;;26.55;42.74;100749.75;5050072;28;47137;-65
2021/09/04 08:04:51;;;;;;;;;1.00;1.00;;;;;26.58;42.86;100751.44;5034674;28;45536;-66
2021/09/04 08:07:17;;;;;;;;;2.00;2.00;;;;;26.59;42.76;100753.25;5034952;28;45529;-66
2021/09/04 08:09:43;;;;;;;;;2.00;2.00;;;;;26.61;42.82;100749.44;5034956;28;45548;-66
2021/09/04 08:12:09;;;;;;;;;1.33;1.00;;;;;26.61;43.19;100757.63;5034619;28;45419;-66
2021/09/04 08:14:34;;;;;;;;;1.67;1.67;;;;;26.63;43.22;100763.91;5034963;28;45875;-66
2021/09/04 08:16:59;;;;;;;;;1.67;1.67;;;;;26.63;42.88;100761.16;5034916;28;45607;-66
2021/09/04 08:19:25;;;;;;;;;1.33;1.33;;;;;26.64;42.85;100756.59;5050555;28;45968;-66
2021/09/04 08:21:50;;;;;;;;;3.00;3.00;;;;;26.65;43.00;100758.38;5034859;28;45442;-66
2021/09/04 08:24:16;;;;;;;;;1.67;1.67;;;;;26.64;43.13;100759.31;5034679;28;45843;-66
2021/09/04 08:26:42;;;;;;;;;2.00;2.00;;;;;26.65;43.06;100772.88;5034807;28;45425;-66
2021/09/04 08:29:09;;;;;;;;;1.00;1.00;;;;;26.66;43.05;100762.84;5034679;28;45392;-66
2021/09/04 08:31:34;;;;;;;;;2.00;2.00;;;;;26.67;42.69;100773.69;5033216;28;45466;-66
2021/09/04 08:33:59;;;;;;;;;1.67;1.67;;;;;26.67;42.63;100775.53;5034552;28;45417;-66
2021/09/04 08:36:25;;;;;;;;;1.00;1.00;;;;;26.69;43.03;100773.59;5032893;28;45439;-66
2021/09/04 08:38:50;;;;;;;;;1.00;1.00;;;;;26.69;43.12;100776.34;5033200;28;45393;-66
2021/09/04 08:41:16;;;;;;;;;1.33;1.33;;;;;26.68;43.13;100782.75;5034312;28;45959;-66
2021/09/04 08:43:41;;;;;;;;;2.00;2.00;;;;;26.69;43.21;100787.25;5034085;28;45481;-66
2021/09/04 08:46:07;;;;;;;;;0.00;0.00;;;;;26.69;43.21;100785.41;5034384;28;45913;-66
2021/09/04 08:48:34;;;;;;;;;1.00;1.00;;;;;26.62;42.62;100778.50;5034464;28;45436;-66
2021/09/04 08:51:05;;;;;;;;;1.00;1.00;;;;;26.71;43.09;100785.31;5051729;28;45397;-66
2021/09/04 08:53:31;;;;;;;;;0.00;0.00;;;;;26.70;42.98;100792.63;5054469;28;45909;-66
2021/09/04 08:55:56;;;;;;;;;0.00;0.00;;;;;26.72;42.76;100789.81;5054244;28;45400;-66
2021/09/04 08:58:21;;;;;;;;;0.00;0.00;;;;;26.72;42.99;100793.44;5054448;28;45595;-66
2021/09/04 09:00:47;;;;;;;;;0.00;0.00;;;;;26.73;42.65;100795.19;5053359;28;46953;-66
2021/09/04 09:03:28;;;;;;;;;0.00;0.00;;;;;26.72;42.74;100798.00;5053898;28;45448;-66
2021/09/04 09:05:58;;;;;;;;;0.00;0.00;;;;;26.75;42.49;100795.13;5036302;28;45446;-66
2021/09/04 09:08:27;;;;;;;;;0.33;0.33;;;;;26.77;42.52;100795.91;5054251;28;45377;-66
2021/09/04 09:10:59;;;;;;;;;0.33;0.33;;;;;26.79;43.09;100796.72;5054212;28;46375;-66
2021/09/04 09:13:25;;;;;;;;;0.00;0.00;;;;;26.80;43.11;100793.00;5054480;28;45588;-66
2021/09/04 09:15:54;;;;;;;;;0.33;0.33;;;;;26.83;42.50;100805.63;5036234;28;45762;-66
2021/09/04 09:18:20;;;;;;;;;0.00;0.00;;;;;26.84;42.47;100802.78;5036139;28;45512;-66
2021/09/04 09:21:04;;;;;;;;;0.00;0.00;;;;;26.86;43.08;100803.59;5036159;28;46301;-66
2021/09/04 09:23:30;;;;;;;;;0.67;0.67;;;;;26.88;43.00;100800.78;5054090;28;45653;-66
2021/09/04 09:26:06;;;;;;;;;0.00;0.00;;;;;26.87;43.11;100794.47;5054145;28;45529;-66
2021/09/04 09:28:31;;;;;;;;;0.00;0.00;;;;;26.88;42.99;100790.75;5054013;28;44867;-66
2021/09/04 09:30:56;;;;;;;;;0.33;0.33;;;;;26.89;42.94;100792.53;5053675;28;45504;-66
2021/09/04 09:33:27;;;;;;;;;0.00;0.00;;;;;26.94;42.62;100800.47;5053655;28;45406;-66
2021/09/04 09:35:54;;;;;;;;;0.00;0.00;;;;;26.96;42.43;100797.66;5053983;28;45679;-67
2021/09/04 09:38:28;;;;;;;;;0.00;0.00;;;;;26.97;42.41;100802.16;5054174;28;45410;-66
2021/09/04 09:40:55;;;;;;;;;0.00;0.00;;;;;26.99;42.58;100808.44;5053333;28;46009;-66
2021/09/04 09:43:22;;;;;;;;;0.00;0.00;;;;;26.99;42.95;100812.03;5042741;28;45569;-66
2021/09/04 09:46:02;;;;;;;;;0.67;0.67;;;;;27.00;42.33;100800.13;5035880;28;45343;-66
2021/09/04 09:48:30;;;;;;;;;0.00;0.00;;;;;27.01;42.54;100803.78;5037106;28;45401;-66
2021/09/04 09:51:00;;;;;;;;;0.00;0.00;;;;;27.03;42.58;100812.75;5035475;28;46843;-66
2021/09/04 09:53:26;;;;;;;;;0.00;0.00;;;;;27.04;42.86;100800.84;5035305;28;45506;-66
2021/09/04 09:55:54;;;;;;;;;0.00;0.00;;;;;27.04;42.67;100790.81;5035334;28;45359;-66
2021/09/04 09:58:22;;;;;;;;;1.00;1.00;;;;;27.05;42.42;100798.06;5036887;28;45258;-66
2021/09/04 10:00:53;;;;;;;;;0.00;0.00;;;;;27.06;42.87;100793.47;5036499;28;45487;-66
2021/09/04 10:03:21;;;;;;;;;0.00;0.00;;;;;27.07;42.68;100784.34;5036434;28;45443;-66
2021/09/04 10:05:46;;;;;;;;;0.00;0.00;;;;;27.07;42.12;100779.75;5036750;28;45401;-66
2021/09/04 10:08:17;;;;;;;;;0.00;0.00;;;;;27.07;42.59;100774.28;5036691;28;45384;-66
2021/09/04 10:10:43;;;;;;;;;0.00;0.00;;;;;27.08;41.99;100770.56;5036459;28;46132;-66
2021/09/04 10:13:12;;;;;;;;;0.00;0.00;;;;;27.09;42.57;100768.75;5036736;28;45782;-66
2021/09/04 10:15:39;;;;;;;;;0.00;0.00;;;;;27.05;42.55;100768.03;5036503;28;45373;-66
2021/09/04 10:18:10;;;;;;;;;0.00;0.00;;;;;27.13;42.68;100779.41;5036778;28;45485;-66
2021/09/04 10:20:36;;;;;;;;;0.00;0.00;;;;;27.11;42.56;100775.88;5036322;28;45468;-66
2021/09/04 10:23:33;;;;;;;;;0.00;0.00;;;;;27.15;42.64;100776.59;5036362;28;45573;-66
2021/09/04 10:26:20;;;;;;;;;0.00;0.00;;;;;27.17;42.45;100774.66;5036232;28;45415;-66
2021/09/04 10:29:07;;;;;;;;;0.00;0.00;;;;;27.18;42.13;100770.09;5036440;28;45567;-65
2021/09/04 10:32:02;;;;;;;;;0.00;0.00;;;;;27.20;42.13;100768.16;5036095;28;46392;-66
2021/09/04 10:34:36;;;;;;;;;0.00;0.00;;;;;27.21;42.01;100775.34;5034575;28;46165;-66
2021/09/04 10:37:15;;;;;;;;;0.00;0.00;;;;;27.22;42.53;100768.94;5035923;28;45367;-66
2021/09/04 10:39:56;;;;;;;;;0.00;0.00;;;;;27.24;42.21;100776.13;5034972;28;46103;-66
2021/09/04 10:42:24;;;;;;;;;0.00;0.00;;;;;27.24;42.07;100776.13;5035790;28;45492;-66
2021/09/04 10:44:55;;;;;;;;;0.00;0.00;;;;;27.26;42.02;100773.31;5036197;28;45433;-66
2021/09/04 10:47:21;;;;;;;;;0.00;0.00;;;;;27.24;42.44;100765.19;5036248;28;45512;-66
2021/09/04 10:49:52;;;;;;;;;0.00;0.00;;;;;27.28;42.01;100774.09;5035014;28;45467;-66
2021/09/04 10:52:46;;;;;;;;;0.67;0.67;;;;;27.31;41.94;100779.41;5036111;28;45630;-67
2021/09/04 10:55:25;;;;;;;;;0.00;0.00;;;;;27.31;42.61;100777.56;5034910;28;45516;-67
2021/09/04 10:57:52;;;;;;;;;0.00;0.00;;;;;27.33;42.02;100774.75;5034496;28;45599;-66
2021/09/04 11:00:23;;;;;;;;;0.00;0.00;;;;;27.34;41.93;100771.03;5034689;28;45368;-66
2021/09/04 11:03:03;;;;;;;;;0.00;0.00;;;;;27.34;42.26;100771.03;5035550;28;46201;-66
2021/09/04 11:05:52;;;;;;;;;0.00;0.00;;;;;27.33;41.95;100761.97;5035434;28;45365;-66
2021/09/04 11:08:29;;;;;;;;;0.00;0.00;;;;;27.38;42.54;100763.56;5034655;28;45509;-67
2021/09/04 11:11:15;;;;;;;;;0.00;0.00;;;;;27.38;42.45;100767.16;5035536;28;45742;-67
2021/09/04 11:13:48;;;;;;;;;0.00;0.00;;;;;27.40;42.50;100764.34;5035529;28;45423;-67
2021/09/04 11:16:32;;;;;;;;;0.00;0.00;;;;;27.42;41.96;100762.41;5035397;28;45564;-66
2021/09/04 11:19:23;;;;;;;;;0.00;0.00;;;;;27.42;41.90;100757.81;5035307;28;45450;-66
2021/09/04 11:22:06;;;;;;;;;0.00;0.00;;;;;27.44;41.88;100749.56;5035915;28;45354;-66
2021/09/04 11:24:58;;;;;;;;;0.00;0.00;;;;;27.46;41.82;100747.63;5033883;28;46826;-66